Symphony Moderna — JG5131 — position and weather

sailwx.info

Track history (hours):
 
Tides and Currents Weather Stations Pressure Air Temp Water Temp Dewpoint Dewpoint Depression Visibility Wind Speed Wind Dir Waves Ship Positions

Symphony Moderna

Last reported at 2017-Oct-18 12:31 UTC. Time now 2017-Oct-18 18:31 UTC.
Position N 35°39' E 139°46'.

Length 83 m; draft 3.3 m.

Type: Passenger vessel. MMSI: 431000424.

Date/timePositionNaut miles runAvg speedWind from/ knotsBaromVisibWave heightAir tempDewpointWater temp
2017-Oct-18 12:31N 35°39' E 139°46'0 0.3
2017-Oct-18 12:29N 35°39' E 139°46'2 3.2
2017-Oct-18 12:00N 35°37' E 139°46'4 8.8
2017-Oct-18 11:31N 35°34' E 139°49'2 4.6
2017-Oct-18 11:00N 35°36' E 139°50'3 6.2
2017-Oct-18 10:30N 35°37' E 139°46'2 2.1
2017-Oct-18 09:24N 35°39' E 139°46'3 7.2
2017-Oct-18 08:55N 35°36' E 139°47'3 7.3
2017-Oct-18 08:31N 35°35' E 139°50'3 5.6
2017-Oct-18 08:00N 35°36' E 139°47'3 2.5
2017-Oct-18 06:40N 35°39' E 139°46'1 3.8
2017-Oct-18 06:30N 35°38' E 139°46'1 0.4
2017-Oct-18 05:00N 35°39' E 139°46'2 4.1
2017-Oct-18 04:30N 35°37' E 139°46'4 8.2
2017-Oct-18 04:00N 35°34' E 139°50'3 4.8
2017-Oct-18 03:25N 35°36' E 139°47'3 0.2
2017-Oct-17 12:39N 35°39' E 139°46'0 0.4
2017-Oct-17 12:30N 35°39' E 139°46'2 4.5
2017-Oct-17 12:00N 35°37' E 139°46'5 9.2
2017-Oct-17 11:30N 35°34' E 139°50'2 4.8
2017-Oct-17 10:59N 35°36' E 139°51'4 7.3
2017-Oct-17 10:30N 35°36' E 139°46'3 2.7
2017-Oct-17 09:34N 35°39' E 139°46'0 0.2
2017-Oct-17 09:21N 35°39' E 139°46'2 6.9
2017-Oct-17 09:00N 35°37' E 139°46'5 9.1
2017-Oct-17 08:30N 35°34' E 139°51'3 6.3
2017-Oct-17 07:58N 35°36' E 139°47'3 2.5
2017-Oct-17 06:40N 35°39' E 139°46'2 6.7
2017-Oct-17 06:26N 35°37' E 139°46'2 1.0
2017-Oct-17 04:55N 35°39' E 139°46'3 6.1
2017-Oct-17 04:30N 35°36' E 139°46'4 7.2
2017-Oct-17 04:00N 35°34' E 139°50'3 4.5
2017-Oct-17 03:16N 35°36' E 139°47'2 8.8
2017-Oct-17 03:00N 35°38' E 139°46'1 0.0
2017-Oct-16 12:35N 35°39' E 139°46'0 0.6
2017-Oct-16 12:31N 35°39' E 139°46'3 5.2
2017-Oct-16 12:00N 35°36' E 139°46'3 7.0
2017-Oct-16 11:30N 35°34' E 139°50'2 3.4
2017-Oct-16 11:00N 35°36' E 139°50'4 7.2
2017-Oct-16 10:29N 35°37' E 139°46'2 1.9
2017-Oct-16 09:25N 35°39' E 139°46'2 4.0
2017-Oct-16 09:00N 35°37' E 139°46'4 8.7
2017-Oct-16 08:30N 35°34' E 139°50'3 5.1
2017-Oct-16 07:59N 35°36' E 139°47'3 2.5
2017-Oct-16 06:38N 35°39' E 139°46'0 2.4
2017-Oct-16 06:30N 35°39' E 139°46'0 0.2
2017-Oct-16 04:49N 35°39' E 139°46'2 6.2
2017-Oct-16 04:30N 35°37' E 139°46'4 7.9
2017-Oct-16 04:00N 35°34' E 139°49'2 4.5
2017-Oct-16 03:29N 35°36' E 139°47'3 0.2
2017-Oct-15 12:31N 35°39' E 139°46'0 0.0
2017-Oct-15 12:30N 35°39' E 139°46'2 4.3
2017-Oct-15 12:00N 35°37' E 139°46'4 8.4
2017-Oct-15 11:30N 35°35' E 139°51'1 2.8
2017-Oct-15 11:00N 35°36' E 139°51'4 7.9
2017-Oct-15 10:29N 35°36' E 139°46'3 2.4
2017-Oct-15 09:20N 35°39' E 139°46'1 3.4
2017-Oct-15 09:00N 35°38' E 139°46'5 9.4
2017-Oct-15 08:31N 35°34' E 139°49'2 4.2
2017-Oct-15 07:57N 35°36' E 139°47'3 3.2
2017-Oct-15 06:56N 35°39' E 139°46'2 3.7
2017-Oct-15 06:30N 35°37' E 139°46'2 1.1
2017-Oct-15 05:03N 35°39' E 139°46'0 1.0
2017-Oct-15 05:00N 35°39' E 139°46'3 5.2
2017-Oct-15 04:30N 35°36' E 139°46'4 7.2
2017-Oct-15 03:59N 35°34' E 139°50'3 5.7
2017-Oct-15 03:30N 35°36' E 139°47'3 0.2
2017-Oct-14 12:31N 35°39' E 139°46'0 0.1
2017-Oct-14 12:28N 35°39' E 139°46'3 6.1
2017-Oct-14 11:58N 35°36' E 139°47'3 7.6
2017-Oct-14 11:30N 35°35' E 139°51'1 2.6
2017-Oct-14 11:00N 35°36' E 139°50'4 6.9
2017-Oct-14 10:29N 35°37' E 139°46'2 1.8
2017-Oct-14 09:22N 35°39' E 139°46'2 6.4
2017-Oct-14 09:00N 35°37' E 139°46'5 9.5
2017-Oct-14 08:31N 35°34' E 139°51'4 7.1
2017-Oct-14 08:00N 35°37' E 139°48'3 2.3
2017-Oct-14 06:42N 35°39' E 139°46'1 3.5
2017-Oct-14 06:30N 35°39' E 139°46'1 0.5
2017-Oct-14 05:03N 35°39' E 139°46'0 0.9
2017-Oct-14 04:59N 35°39' E 139°46'3 5.4
2017-Oct-14 04:28N 35°36' E 139°47'3 7.4
2017-Oct-14 04:00N 35°34' E 139°49'3 6.9
2017-Oct-14 03:30N 35°37' E 139°49'3 0.8
2017-Oct-13 23:15N 35°39' E 139°46'0 0.0
2017-Oct-13 12:39N 35°39' E 139°46'0 0.0
2017-Oct-13 12:30N 35°39' E 139°46'3 5.1
2017-Oct-13 11:58N 35°36' E 139°47'4 8.4
2017-Oct-13 11:30N 35°35' E 139°51'1 2.7
2017-Oct-13 11:00N 35°36' E 139°51'4 7.5
2017-Oct-13 10:30N 35°37' E 139°46'2 1.4
2017-Oct-13 09:11N 35°39' E 139°46'1 4.3
2017-Oct-13 08:59N 35°38' E 139°46'4 9.3
2017-Oct-13 08:30N 35°34' E 139°49'2 4.1
2017-Oct-13 07:56N 35°36' E 139°47'3 2.5
2017-Oct-13 06:37N 35°39' E 139°46'0 3.6
2017-Oct-13 06:30N 35°39' E 139°46'0 0.2
2017-Oct-13 04:48N 35°39' E 139°46'2 6.7
2017-Oct-13 04:30N 35°37' E 139°46'4 7.6
2017-Oct-13 04:00N 35°34' E 139°48'3 6.3
2017-Oct-13 03:29N 35°37' E 139°49'3 6.5
2017-Oct-13 03:00N 35°38' E 139°46'1 0.1
2017-Oct-12 12:31N 35°39' E 139°46'0 0.0
2017-Oct-12 12:27N 35°39' E 139°46'4 7.0
2017-Oct-12 11:54N 35°35' E 139°47'3 8.2
2017-Oct-12 11:30N 35°36' E 139°51'1 1.6
2017-Oct-12 11:00N 35°36' E 139°51'4 7.3
2017-Oct-12 10:30N 35°37' E 139°46'2 1.9
2017-Oct-12 09:19N 35°39' E 139°46'2 5.5
2017-Oct-12 09:00N 35°37' E 139°46'5 9.5
2017-Oct-12 08:31N 35°34' E 139°50'3 5.3
2017-Oct-12 07:56N 35°36' E 139°48'3 2.5
2017-Oct-12 06:40N 35°39' E 139°46'1 4.4
2017-Oct-12 06:30N 35°39' E 139°46'1 0.3
2017-Oct-12 04:46N 35°39' E 139°46'2 6.6
2017-Oct-12 04:30N 35°37' E 139°46'4 8.3
2017-Oct-12 04:00N 35°33' E 139°48'3 6.8
2017-Oct-12 03:30N 35°37' E 139°49'3 6.5
2017-Oct-12 02:58N 35°38' E 139°46'1 0.0
2017-Oct-10 13:32N 35°39' E 139°46'0 0.0
2017-Oct-10 11:59N 35°39' E 139°46'0 0.0
2017-Oct-10 04:52N 35°39' E 139°46'2 6.6
2017-Oct-10 04:30N 35°37' E 139°46'4 7.9
2017-Oct-10 04:01N 35°34' E 139°49'3 6.6
2017-Oct-10 03:30N 35°37' E 139°49'3 5.3
2017-Oct-10 03:00N 35°38' E 139°46'1 0.0
2017-Oct-08 12:36N 35°39' E 139°46'  
Track history (hours):
 
Tides and Currents Weather Stations Pressure Air Temp Water Temp Dewpoint Dewpoint Depression Visibility Wind Speed Wind Dir Waves Ship Positions

Symphony Moderna

Last reported at 2017-Oct-18 12:31 UTC. Time now 2017-Oct-18 18:31 UTC.
Position N 35°39' E 139°46'.

Length 83 m; draft 3.3 m.

Type: Passenger vessel. MMSI: 431000424.

Date/timePositionNaut miles runAvg speedWind from/ knotsBaromVisibWave heightAir tempDewpointWater temp
2017-Oct-18 12:31N 35°39' E 139°46'0 0.3
2017-Oct-18 12:29N 35°39' E 139°46'2 3.2
2017-Oct-18 12:00N 35°37' E 139°46'4 8.8
2017-Oct-18 11:31N 35°34' E 139°49'2 4.6
2017-Oct-18 11:00N 35°36' E 139°50'3 6.2
2017-Oct-18 10:30N 35°37' E 139°46'2 2.1
2017-Oct-18 09:24N 35°39' E 139°46'3 7.2
2017-Oct-18 08:55N 35°36' E 139°47'3 7.3
2017-Oct-18 08:31N 35°35' E 139°50'3 5.6
2017-Oct-18 08:00N 35°36' E 139°47'3 2.5
2017-Oct-18 06:40N 35°39' E 139°46'1 3.8
2017-Oct-18 06:30N 35°38' E 139°46'1 0.4
2017-Oct-18 05:00N 35°39' E 139°46'2 4.1
2017-Oct-18 04:30N 35°37' E 139°46'4 8.2
2017-Oct-18 04:00N 35°34' E 139°50'3 4.8
2017-Oct-18 03:25N 35°36' E 139°47'3 0.2
2017-Oct-17 12:39N 35°39' E 139°46'0 0.4
2017-Oct-17 12:30N 35°39' E 139°46'2 4.5
2017-Oct-17 12:00N 35°37' E 139°46'5 9.2
2017-Oct-17 11:30N 35°34' E 139°50'2 4.8
2017-Oct-17 10:59N 35°36' E 139°51'4 7.3
2017-Oct-17 10:30N 35°36' E 139°46'3 2.7
2017-Oct-17 09:34N 35°39' E 139°46'0 0.2
2017-Oct-17 09:21N 35°39' E 139°46'2 6.9
2017-Oct-17 09:00N 35°37' E 139°46'5 9.1
2017-Oct-17 08:30N 35°34' E 139°51'3 6.3
2017-Oct-17 07:58N 35°36' E 139°47'3 2.5
2017-Oct-17 06:40N 35°39' E 139°46'2 6.7
2017-Oct-17 06:26N 35°37' E 139°46'2 1.0
2017-Oct-17 04:55N 35°39' E 139°46'3 6.1
2017-Oct-17 04:30N 35°36' E 139°46'4 7.2
2017-Oct-17 04:00N 35°34' E 139°50'3 4.5
2017-Oct-17 03:16N 35°36' E 139°47'2 8.8
2017-Oct-17 03:00N 35°38' E 139°46'1 0.0
2017-Oct-16 12:35N 35°39' E 139°46'0 0.6
2017-Oct-16 12:31N 35°39' E 139°46'3 5.2
2017-Oct-16 12:00N 35°36' E 139°46'3 7.0
2017-Oct-16 11:30N 35°34' E 139°50'2 3.4
2017-Oct-16 11:00N 35°36' E 139°50'4 7.2
2017-Oct-16 10:29N 35°37' E 139°46'2 1.9
2017-Oct-16 09:25N 35°39' E 139°46'2 4.0
2017-Oct-16 09:00N 35°37' E 139°46'4 8.7
2017-Oct-16 08:30N 35°34' E 139°50'3 5.1
2017-Oct-16 07:59N 35°36' E 139°47'3 2.5
2017-Oct-16 06:38N 35°39' E 139°46'0 2.4
2017-Oct-16 06:30N 35°39' E 139°46'0 0.2
2017-Oct-16 04:49N 35°39' E 139°46'2 6.2
2017-Oct-16 04:30N 35°37' E 139°46'4 7.9
2017-Oct-16 04:00N 35°34' E 139°49'2 4.5
2017-Oct-16 03:29N 35°36' E 139°47'3 0.2
2017-Oct-15 12:31N 35°39' E 139°46'0 0.0
2017-Oct-15 12:30N 35°39' E 139°46'2 4.3
2017-Oct-15 12:00N 35°37' E 139°46'4 8.4
2017-Oct-15 11:30N 35°35' E 139°51'1 2.8
2017-Oct-15 11:00N 35°36' E 139°51'4 7.9
2017-Oct-15 10:29N 35°36' E 139°46'3 2.4
2017-Oct-15 09:20N 35°39' E 139°46'1 3.4
2017-Oct-15 09:00N 35°38' E 139°46'5 9.4
2017-Oct-15 08:31N 35°34' E 139°49'2 4.2
2017-Oct-15 07:57N 35°36' E 139°47'3 3.2
2017-Oct-15 06:56N 35°39' E 139°46'2 3.7
2017-Oct-15 06:30N 35°37' E 139°46'2 1.1
2017-Oct-15 05:03N 35°39' E 139°46'0 1.0
2017-Oct-15 05:00N 35°39' E 139°46'3 5.2
2017-Oct-15 04:30N 35°36' E 139°46'4 7.2
2017-Oct-15 03:59N 35°34' E 139°50'3 5.7
2017-Oct-15 03:30N 35°36' E 139°47'3 0.2
2017-Oct-14 12:31N 35°39' E 139°46'0 0.1
2017-Oct-14 12:28N 35°39' E 139°46'3 6.1
2017-Oct-14 11:58N 35°36' E 139°47'3 7.6
2017-Oct-14 11:30N 35°35' E 139°51'1 2.6
2017-Oct-14 11:00N 35°36' E 139°50'4 6.9
2017-Oct-14 10:29N 35°37' E 139°46'2 1.8
2017-Oct-14 09:22N 35°39' E 139°46'2 6.4
2017-Oct-14 09:00N 35°37' E 139°46'5 9.5
2017-Oct-14 08:31N 35°34' E 139°51'4 7.1
2017-Oct-14 08:00N 35°37' E 139°48'3 2.3
2017-Oct-14 06:42N 35°39' E 139°46'1 3.5
2017-Oct-14 06:30N 35°39' E 139°46'1 0.5
2017-Oct-14 05:03N 35°39' E 139°46'0 0.9
2017-Oct-14 04:59N 35°39' E 139°46'3 5.4
2017-Oct-14 04:28N 35°36' E 139°47'3 7.4
2017-Oct-14 04:00N 35°34' E 139°49'3 6.9
2017-Oct-14 03:30N 35°37' E 139°49'3 0.8
2017-Oct-13 23:15N 35°39' E 139°46'0 0.0
2017-Oct-13 12:39N 35°39' E 139°46'0 0.0
2017-Oct-13 12:30N 35°39' E 139°46'3 5.1
2017-Oct-13 11:58N 35°36' E 139°47'4 8.4
2017-Oct-13 11:30N 35°35' E 139°51'1 2.7
2017-Oct-13 11:00N 35°36' E 139°51'4 7.5
2017-Oct-13 10:30N 35°37' E 139°46'2 1.4
2017-Oct-13 09:11N 35°39' E 139°46'1 4.3
2017-Oct-13 08:59N 35°38' E 139°46'4 9.3
2017-Oct-13 08:30N 35°34' E 139°49'2 4.1
2017-Oct-13 07:56N 35°36' E 139°47'3 2.5
2017-Oct-13 06:37N 35°39' E 139°46'0 3.6
2017-Oct-13 06:30N 35°39' E 139°46'0 0.2
2017-Oct-13 04:48N 35°39' E 139°46'2 6.7
2017-Oct-13 04:30N 35°37' E 139°46'4 7.6
2017-Oct-13 04:00N 35°34' E 139°48'3 6.3
2017-Oct-13 03:29N 35°37' E 139°49'3 6.5
2017-Oct-13 03:00N 35°38' E 139°46'1 0.1
2017-Oct-12 12:31N 35°39' E 139°46'0 0.0
2017-Oct-12 12:27N 35°39' E 139°46'4 7.0
2017-Oct-12 11:54N 35°35' E 139°47'3 8.2
2017-Oct-12 11:30N 35°36' E 139°51'1 1.6
2017-Oct-12 11:00N 35°36' E 139°51'4 7.3
2017-Oct-12 10:30N 35°37' E 139°46'2 1.9
2017-Oct-12 09:19N 35°39' E 139°46'2 5.5
2017-Oct-12 09:00N 35°37' E 139°46'5 9.5
2017-Oct-12 08:31N 35°34' E 139°50'3 5.3
2017-Oct-12 07:56N 35°36' E 139°48'3 2.5
2017-Oct-12 06:40N 35°39' E 139°46'1 4.4
2017-Oct-12 06:30N 35°39' E 139°46'1 0.3
2017-Oct-12 04:46N 35°39' E 139°46'2 6.6
2017-Oct-12 04:30N 35°37' E 139°46'4 8.3
2017-Oct-12 04:00N 35°33' E 139°48'3 6.8
2017-Oct-12 03:30N 35°37' E 139°49'3 6.5
2017-Oct-12 02:58N 35°38' E 139°46'1 0.0
2017-Oct-10 13:32N 35°39' E 139°46'0 0.0
2017-Oct-10 11:59N 35°39' E 139°46'0 0.0
2017-Oct-10 04:52N 35°39' E 139°46'2 6.6
2017-Oct-10 04:30N 35°37' E 139°46'4 7.9
2017-Oct-10 04:01N 35°34' E 139°49'3 6.6
2017-Oct-10 03:30N 35°37' E 139°49'3 5.3
2017-Oct-10 03:00N 35°38' E 139°46'1 0.0
2017-Oct-08 12:36N 35°39' E 139°46'  

Dump ship's entire track history